sensor_id;sensor_type;location;lat;lon;timestamp;pressure;altitude;pressure_sealevel;temperature
12854;BMP180;6495;51.808;7.478;2023-04-03T00:02:29;102432.00;;;5.30
12854;BMP180;6495;51.808;7.478;2023-04-03T00:05:18;102433.00;;;5.30
12854;BMP180;6495;51.808;7.478;2023-04-03T00:08:07;102429.00;;;5.30
12854;BMP180;6495;51.808;7.478;2023-04-03T00:10:58;102435.00;;;5.20
12854;BMP180;6495;51.808;7.478;2023-04-03T00:13:47;102430.00;;;5.10
12854;BMP180;6495;51.808;7.478;2023-04-03T00:16:35;102435.00;;;5.10
12854;BMP180;6495;51.808;7.478;2023-04-03T00:19:24;102425.00;;;5.10
12854;BMP180;6495;51.808;7.478;2023-04-03T00:22:13;102437.00;;;5.00
12854;BMP180;6495;51.808;7.478;2023-04-03T00:25:08;102433.00;;;5.00
12854;BMP180;6495;51.808;7.478;2023-04-03T00:27:58;102439.00;;;4.90
12854;BMP180;6495;51.808;7.478;2023-04-03T00:30:49;102429.00;;;4.80
12854;BMP180;6495;51.808;7.478;2023-04-03T00:33:38;102442.00;;;4.80
12854;BMP180;6495;51.808;7.478;2023-04-03T00:36:27;102432.00;;;4.70
12854;BMP180;6495;51.808;7.478;2023-04-03T00:39:15;102440.00;;;4.70
12854;BMP180;6495;51.808;7.478;2023-04-03T00:42:04;102430.00;;;4.80
12854;BMP180;6495;51.808;7.478;2023-04-03T00:45:34;102434.00;;;4.90
12854;BMP180;6495;51.808;7.478;2023-04-03T00:48:28;102436.00;;;4.80
12854;BMP180;6495;51.808;7.478;2023-04-03T00:51:22;102434.00;;;4.80
12854;BMP180;6495;51.808;7.478;2023-04-03T00:54:12;102432.00;;;4.80
12854;BMP180;6495;51.808;7.478;2023-04-03T00:57:02;102437.00;;;4.80
12854;BMP180;6495;51.808;7.478;2023-04-03T00:59:57;102443.00;;;4.70
12854;BMP180;6495;51.808;7.478;2023-04-03T01:02:49;102446.00;;;4.70
12854;BMP180;6495;51.808;7.478;2023-04-03T01:05:40;102445.00;;;4.60
12854;BMP180;6495;51.808;7.478;2023-04-03T01:08:30;102444.00;;;4.60
12854;BMP180;6495;51.808;7.478;2023-04-03T01:11:19;102433.00;;;4.60
12854;BMP180;6495;51.808;7.478;2023-04-03T01:14:08;102438.00;;;4.60
12854;BMP180;6495;51.808;7.478;2023-04-03T01:16:57;102446.00;;;4.60
12854;BMP180;6495;51.808;7.478;2023-04-03T01:19:55;102437.00;;;4.70
12854;BMP180;6495;51.808;7.478;2023-04-03T01:22:56;102445.00;;;4.60
12854;BMP180;6495;51.808;7.478;2023-04-03T01:25:50;102441.00;;;4.60
12854;BMP180;6495;51.808;7.478;2023-04-03T01:28:39;102434.00;;;4.60
12854;BMP180;6495;51.808;7.478;2023-04-03T01:31:42;102444.00;;;4.60
12854;BMP180;6495;51.808;7.478;2023-04-03T01:34:31;102437.00;;;4.50
12854;BMP180;6495;51.808;7.478;2023-04-03T01:37:21;102445.00;;;4.40
12854;BMP180;6495;51.808;7.478;2023-04-03T01:40:10;102441.00;;;4.40
12854;BMP180;6495;51.808;7.478;2023-04-03T01:42:59;102447.00;;;4.40
12854;BMP180;6495;51.808;7.478;2023-04-03T01:45:47;102450.00;;;4.40
12854;BMP180;6495;51.808;7.478;2023-04-03T01:48:39;102455.00;;;4.40
12854;BMP180;6495;51.808;7.478;2023-04-03T01:51:28;102455.00;;;4.30
12854;BMP180;6495;51.808;7.478;2023-04-03T01:54:16;102453.00;;;4.30
12854;BMP180;6495;51.808;7.478;2023-04-03T01:57:05;102456.00;;;4.20
12854;BMP180;6495;51.808;7.478;2023-04-03T01:59:54;102455.00;;;4.20
12854;BMP180;6495;51.808;7.478;2023-04-03T02:02:43;102461.00;;;4.20
12854;BMP180;6495;51.808;7.478;2023-04-03T02:05:34;102461.00;;;4.20
12854;BMP180;6495;51.808;7.478;2023-04-03T02:08:23;102468.00;;;4.20
12854;BMP180;6495;51.808;7.478;2023-04-03T02:11:12;102469.00;;;4.10
12854;BMP180;6495;51.808;7.478;2023-04-03T02:14:00;102461.00;;;4.10
12854;BMP180;6495;51.808;7.478;2023-04-03T02:16:49;102468.00;;;4.10
12854;BMP180;6495;51.808;7.478;2023-04-03T02:19:38;102475.00;;;4.10
12854;BMP180;6495;51.808;7.478;2023-04-03T02:22:28;102465.00;;;4.10
12854;BMP180;6495;51.808;7.478;2023-04-03T02:25:17;102470.00;;;4.10
12854;BMP180;6495;51.808;7.478;2023-04-03T02:28:06;102471.00;;;4.00
12854;BMP180;6495;51.808;7.478;2023-04-03T02:30:54;102462.00;;;4.00
12854;BMP180;6495;51.808;7.478;2023-04-03T02:33:43;102468.00;;;3.90
12854;BMP180;6495;51.808;7.478;2023-04-03T02:36:34;102477.00;;;3.80
12854;BMP180;6495;51.808;7.478;2023-04-03T02:39:27;102479.00;;;3.80
12854;BMP180;6495;51.808;7.478;2023-04-03T02:42:18;102476.00;;;3.90
12854;BMP180;6495;51.808;7.478;2023-04-03T02:45:07;102487.00;;;3.90
12854;BMP180;6495;51.808;7.478;2023-04-03T02:47:56;102477.00;;;3.90
12854;BMP180;6495;51.808;7.478;2023-04-03T02:50:44;102473.00;;;3.80
12854;BMP180;6495;51.808;7.478;2023-04-03T02:53:33;102479.00;;;3.80
12854;BMP180;6495;51.808;7.478;2023-04-03T02:56:30;102474.00;;;3.80
12854;BMP180;6495;51.808;7.478;2023-04-03T02:59:18;102471.00;;;3.80
12854;BMP180;6495;51.808;7.478;2023-04-03T03:02:08;102479.00;;;3.70
12854;BMP180;6495;51.808;7.478;2023-04-03T03:04:57;102464.00;;;3.70
12854;BMP180;6495;51.808;7.478;2023-04-03T03:07:46;102476.00;;;3.60
12854;BMP180;6495;51.808;7.478;2023-04-03T03:10:34;102479.00;;;3.60
12854;BMP180;6495;51.808;7.478;2023-04-03T03:13:27;102476.00;;;3.50
12854;BMP180;6495;51.808;7.478;2023-04-03T03:16:19;102466.00;;;3.50
12854;BMP180;6495;51.808;7.478;2023-04-03T03:19:09;102473.00;;;3.50
12854;BMP180;6495;51.808;7.478;2023-04-03T03:22:01;102478.00;;;3.50
12854;BMP180;6495;51.808;7.478;2023-04-03T03:25:04;102486.00;;;3.50
12854;BMP180;6495;51.808;7.478;2023-04-03T03:28:05;102480.00;;;3.50
12854;BMP180;6495;51.808;7.478;2023-04-03T03:31:01;102478.00;;;3.50
12854;BMP180;6495;51.808;7.478;2023-04-03T03:33:54;102481.00;;;3.40
12854;BMP180;6495;51.808;7.478;2023-04-03T03:36:52;102472.00;;;3.40
12854;BMP180;6495;51.808;7.478;2023-04-03T03:39:42;102482.00;;;3.40
12854;BMP180;6495;51.808;7.478;2023-04-03T03:42:37;102477.00;;;3.30
12854;BMP180;6495;51.808;7.478;2023-04-03T03:45:27;102487.00;;;3.30
12854;BMP180;6495;51.808;7.478;2023-04-03T03:48:31;102481.00;;;3.30
12854;BMP180;6495;51.808;7.478;2023-04-03T03:51:24;102481.00;;;3.30
12854;BMP180;6495;51.808;7.478;2023-04-03T03:54:17;102478.00;;;3.30
12854;BMP180;6495;51.808;7.478;2023-04-03T03:57:10;102486.00;;;3.30
12854;BMP180;6495;51.808;7.478;2023-04-03T04:00:00;102480.00;;;3.30
12854;BMP180;6495;51.808;7.478;2023-04-03T04:02:50;102498.00;;;3.20
12854;BMP180;6495;51.808;7.478;2023-04-03T04:05:43;102492.00;;;3.20
12854;BMP180;6495;51.808;7.478;2023-04-03T04:08:32;102483.00;;;3.20
12854;BMP180;6495;51.808;7.478;2023-04-03T04:11:21;102483.00;;;3.10
12854;BMP180;6495;51.808;7.478;2023-04-03T04:14:11;102493.00;;;3.10
12854;BMP180;6495;51.808;7.478;2023-04-03T04:17:02;102486.00;;;3.00
12854;BMP180;6495;51.808;7.478;2023-04-03T04:19:50;102489.00;;;3.00
12854;BMP180;6495;51.808;7.478;2023-04-03T04:22:40;102503.00;;;3.00
12854;BMP180;6495;51.808;7.478;2023-04-03T04:25:29;102507.00;;;2.90
12854;BMP180;6495;51.808;7.478;2023-04-03T04:28:25;102503.00;;;2.90
12854;BMP180;6495;51.808;7.478;2023-04-03T04:31:17;102502.00;;;2.80
12854;BMP180;6495;51.808;7.478;2023-04-03T04:34:06;102501.00;;;2.80
12854;BMP180;6495;51.808;7.478;2023-04-03T04:36:56;102496.00;;;2.80
12854;BMP180;6495;51.808;7.478;2023-04-03T04:39:48;102501.00;;;2.80
12854;BMP180;6495;51.808;7.478;2023-04-03T04:42:36;102507.00;;;2.70
12854;BMP180;6495;51.808;7.478;2023-04-03T04:45:26;102509.00;;;2.70
12854;BMP180;6495;51.808;7.478;2023-04-03T04:48:15;102514.00;;;2.70
12854;BMP180;6495;51.808;7.478;2023-04-03T04:51:04;102514.00;;;2.60
12854;BMP180;6495;51.808;7.478;2023-04-03T04:53:55;102522.00;;;2.60
12854;BMP180;6495;51.808;7.478;2023-04-03T04:56:45;102517.00;;;2.60
12854;BMP180;6495;51.808;7.478;2023-04-03T04:59:34;102530.00;;;2.60
12854;BMP180;6495;51.808;7.478;2023-04-03T05:02:23;102532.00;;;2.50
12854;BMP180;6495;51.808;7.478;2023-04-03T05:05:25;102528.00;;;2.50
12854;BMP180;6495;51.808;7.478;2023-04-03T05:08:17;102524.00;;;2.50
12854;BMP180;6495;51.808;7.478;2023-04-03T05:11:09;102537.00;;;2.50
12854;BMP180;6495;51.808;7.478;2023-04-03T05:14:22;102531.00;;;2.50
12854;BMP180;6495;51.808;7.478;2023-04-03T05:17:21;102537.00;;;2.50
12854;BMP180;6495;51.808;7.478;2023-04-03T05:20:18;102533.00;;;2.50
12854;BMP180;6495;51.808;7.478;2023-04-03T05:23:18;102544.00;;;2.50
12854;BMP180;6495;51.808;7.478;2023-04-03T05:26:29;102546.00;;;2.40
12854;BMP180;6495;51.808;7.478;2023-04-03T05:34:07;102552.00;;;2.40
12854;BMP180;6495;51.808;7.478;2023-04-03T05:37:14;102572.00;;;2.50
12854;BMP180;6495;51.808;7.478;2023-04-03T05:40:18;102575.00;;;2.40
12854;BMP180;6495;51.808;7.478;2023-04-03T05:43:16;102570.00;;;2.40
12854;BMP180;6495;51.808;7.478;2023-04-03T05:46:31;102576.00;;;2.40
12854;BMP180;6495;51.808;7.478;2023-04-03T05:49:42;102581.00;;;2.50
12854;BMP180;6495;51.808;7.478;2023-04-03T05:52:43;102574.00;;;2.50
12854;BMP180;6495;51.808;7.478;2023-04-03T05:55:33;102578.00;;;2.40
12854;BMP180;6495;51.808;7.478;2023-04-03T05:58:22;102585.00;;;2.40
12854;BMP180;6495;51.808;7.478;2023-04-03T06:01:12;102584.00;;;2.40
12854;BMP180;6495;51.808;7.478;2023-04-03T06:04:04;102595.00;;;2.50
12854;BMP180;6495;51.808;7.478;2023-04-03T06:07:14;102587.00;;;2.50
12854;BMP180;6495;51.808;7.478;2023-04-03T06:10:19;102592.00;;;2.40
12854;BMP180;6495;51.808;7.478;2023-04-03T06:13:17;102595.00;;;2.40
12854;BMP180;6495;51.808;7.478;2023-04-03T06:16:24;102594.00;;;2.40
12854;BMP180;6495;51.808;7.478;2023-04-03T06:19:24;102592.00;;;2.40
12854;BMP180;6495;51.808;7.478;2023-04-03T06:22:18;102595.00;;;2.40
12854;BMP180;6495;51.808;7.478;2023-04-03T06:25:44;102597.00;;;2.40
12854;BMP180;6495;51.808;7.478;2023-04-03T06:28:50;102601.00;;;2.30
12854;BMP180;6495;51.808;7.478;2023-04-03T06:31:51;102589.00;;;2.30
12854;BMP180;6495;51.808;7.478;2023-04-03T06:34:51;102596.00;;;2.30
12854;BMP180;6495;51.808;7.478;2023-04-03T06:37:58;102599.00;;;2.40
12854;BMP180;6495;51.808;7.478;2023-04-03T06:41:02;102601.00;;;2.30
12854;BMP180;6495;51.808;7.478;2023-04-03T06:43:59;102604.00;;;2.30
12854;BMP180;6495;51.808;7.478;2023-04-03T06:47:06;102598.00;;;2.30
12854;BMP180;6495;51.808;7.478;2023-04-03T06:49:56;102601.00;;;2.40
12854;BMP180;6495;51.808;7.478;2023-04-03T06:52:56;102614.00;;;2.40
12854;BMP180;6495;51.808;7.478;2023-04-03T06:55:45;102616.00;;;2.30
12854;BMP180;6495;51.808;7.478;2023-04-03T06:58:34;102620.00;;;2.30
12854;BMP180;6495;51.808;7.478;2023-04-03T07:01:24;102619.00;;;2.30
12854;BMP180;6495;51.808;7.478;2023-04-03T07:04:15;102627.00;;;2.40
12854;BMP180;6495;51.808;7.478;2023-04-03T07:07:03;102624.00;;;2.50
12854;BMP180;6495;51.808;7.478;2023-04-03T07:09:53;102630.00;;;2.50
12854;BMP180;6495;51.808;7.478;2023-04-03T07:12:42;102628.00;;;2.50
12854;BMP180;6495;51.808;7.478;2023-04-03T07:15:30;102624.00;;;2.60
12854;BMP180;6495;51.808;7.478;2023-04-03T07:18:19;102624.00;;;2.70
12854;BMP180;6495;51.808;7.478;2023-04-03T07:21:08;102638.00;;;2.80
12854;BMP180;6495;51.808;7.478;2023-04-03T07:24:16;102635.00;;;2.80
12854;BMP180;6495;51.808;7.478;2023-04-03T07:27:09;102641.00;;;2.90
12854;BMP180;6495;51.808;7.478;2023-04-03T07:30:02;102644.00;;;2.90
12854;BMP180;6495;51.808;7.478;2023-04-03T07:32:50;102646.00;;;3.00
12854;BMP180;6495;51.808;7.478;2023-04-03T07:35:40;102659.00;;;3.10
12854;BMP180;6495;51.808;7.478;2023-04-03T07:38:38;102653.00;;;3.20
12854;BMP180;6495;51.808;7.478;2023-04-03T07:41:30;102654.00;;;3.50
12854;BMP180;6495;51.808;7.478;2023-04-03T07:44:20;102658.00;;;3.70
12854;BMP180;6495;51.808;7.478;2023-04-03T07:47:08;102660.00;;;3.70
12854;BMP180;6495;51.808;7.478;2023-04-03T07:49:59;102659.00;;;3.80
12854;BMP180;6495;51.808;7.478;2023-04-03T07:52:47;102664.00;;;3.90
12854;BMP180;6495;51.808;7.478;2023-04-03T07:55:37;102665.00;;;4.00
12854;BMP180;6495;51.808;7.478;2023-04-03T07:58:30;102666.00;;;4.10
12854;BMP180;6495;51.808;7.478;2023-04-03T08:01:21;102680.00;;;4.10
12854;BMP180;6495;51.808;7.478;2023-04-03T08:04:10;102669.00;;;4.30
12854;BMP180;6495;51.808;7.478;2023-04-03T08:06:58;102671.00;;;4.40
12854;BMP180;6495;51.808;7.478;2023-04-03T08:09:47;102678.00;;;4.60
12854;BMP180;6495;51.808;7.478;2023-04-03T08:12:36;102679.00;;;4.70
12854;BMP180;6495;51.808;7.478;2023-04-03T08:15:25;102683.00;;;4.70
12854;BMP180;6495;51.808;7.478;2023-04-03T08:18:16;102678.00;;;4.70
12854;BMP180;6495;51.808;7.478;2023-04-03T08:21:07;102674.00;;;4.60
12854;BMP180;6495;51.808;7.478;2023-04-03T08:23:55;102671.00;;;4.60
12854;BMP180;6495;51.808;7.478;2023-04-03T08:26:44;102667.00;;;4.80
12854;BMP180;6495;51.808;7.478;2023-04-03T08:29:32;102668.00;;;4.90
12854;BMP180;6495;51.808;7.478;2023-04-03T08:32:21;102675.00;;;5.10
12854;BMP180;6495;51.808;7.478;2023-04-03T08:35:12;102681.00;;;5.30
12854;BMP180;6495;51.808;7.478;2023-04-03T08:38:00;102685.00;;;5.30
12854;BMP180;6495;51.808;7.478;2023-04-03T08:41:02;102686.00;;;5.40
12854;BMP180;6495;51.808;7.478;2023-04-03T08:44:02;102672.00;;;5.40
12854;BMP180;6495;51.808;7.478;2023-04-03T08:47:11;102683.00;;;5.50
12854;BMP180;6495;51.808;7.478;2023-04-03T08:50:06;102670.00;;;5.50
12854;BMP180;6495;51.808;7.478;2023-04-03T08:53:01;102670.00;;;5.50
12854;BMP180;6495;51.808;7.478;2023-04-03T08:55:54;102677.00;;;5.50
12854;BMP180;6495;51.808;7.478;2023-04-03T08:58:49;102684.00;;;5.80
12854;BMP180;6495;51.808;7.478;2023-04-03T09:01:41;102686.00;;;6.10
12854;BMP180;6495;51.808;7.478;2023-04-03T09:04:32;102684.00;;;6.20
12854;BMP180;6495;51.808;7.478;2023-04-03T09:07:33;102690.00;;;6.30
12854;BMP180;6495;51.808;7.478;2023-04-03T09:10:29;102675.00;;;6.30
12854;BMP180;6495;51.808;7.478;2023-04-03T09:13:27;102678.00;;;6.40
12854;BMP180;6495;51.808;7.478;2023-04-03T09:16:36;102685.00;;;6.30
12854;BMP180;6495;51.808;7.478;2023-04-03T09:19:37;102681.00;;;6.10
12854;BMP180;6495;51.808;7.478;2023-04-03T09:22:32;102678.00;;;6.10
12854;BMP180;6495;51.808;7.478;2023-04-03T09:25:37;102682.00;;;6.20
12854;BMP180;6495;51.808;7.478;2023-04-03T09:28:27;102691.00;;;6.30
12854;BMP180;6495;51.808;7.478;2023-04-03T09:31:36;102686.00;;;6.40
12854;BMP180;6495;51.808;7.478;2023-04-03T09:34:30;102690.00;;;6.60
12854;BMP180;6495;51.808;7.478;2023-04-03T09:37:43;102698.00;;;6.90
12854;BMP180;6495;51.808;7.478;2023-04-03T09:40:38;102689.00;;;6.70
12854;BMP180;6495;51.808;7.478;2023-04-03T09:43:30;102691.00;;;6.80
12854;BMP180;6495;51.808;7.478;2023-04-03T09:46:32;102692.00;;;6.90
12854;BMP180;6495;51.808;7.478;2023-04-03T09:49:20;102693.00;;;6.80
12854;BMP180;6495;51.808;7.478;2023-04-03T09:52:19;102692.00;;;6.90
12854;BMP180;6495;51.808;7.478;2023-04-03T09:55:15;102683.00;;;6.90
12854;BMP180;6495;51.808;7.478;2023-04-03T09:58:25;102680.00;;;6.90
12854;BMP180;6495;51.808;7.478;2023-04-03T10:01:27;102678.00;;;6.90
12854;BMP180;6495;51.808;7.478;2023-04-03T10:04:18;102676.00;;;7.00
12854;BMP180;6495;51.808;7.478;2023-04-03T10:07:33;102668.00;;;7.10
12854;BMP180;6495;51.808;7.478;2023-04-03T10:10:23;102672.00;;;7.10
12854;BMP180;6495;51.808;7.478;2023-04-03T10:13:25;102669.00;;;7.10
12854;BMP180;6495;51.808;7.478;2023-04-03T10:16:17;102675.00;;;7.20
12854;BMP180;6495;51.808;7.478;2023-04-03T10:19:32;102674.00;;;7.20
12854;BMP180;6495;51.808;7.478;2023-04-03T10:22:33;102662.00;;;7.40
12854;BMP180;6495;51.808;7.478;2023-04-03T10:25:31;102659.00;;;7.50
12854;BMP180;6495;51.808;7.478;2023-04-03T10:28:34;102671.00;;;7.50
12854;BMP180;6495;51.808;7.478;2023-04-03T10:31:29;102662.00;;;7.50
12854;BMP180;6495;51.808;7.478;2023-04-03T10:34:24;102660.00;;;7.60
12854;BMP180;6495;51.808;7.478;2023-04-03T10:37:21;102646.00;;;7.50
12854;BMP180;6495;51.808;7.478;2023-04-03T10:40:24;102646.00;;;7.60
12854;BMP180;6495;51.808;7.478;2023-04-03T10:43:30;102651.00;;;7.80
12854;BMP180;6495;51.808;7.478;2023-04-03T10:46:29;102651.00;;;8.00
12854;BMP180;6495;51.808;7.478;2023-04-03T10:49:38;102654.00;;;8.10
12854;BMP180;6495;51.808;7.478;2023-04-03T10:52:54;102662.00;;;8.20
12854;BMP180;6495;51.808;7.478;2023-04-03T10:55:55;102642.00;;;8.00
12854;BMP180;6495;51.808;7.478;2023-04-03T10:58:52;102654.00;;;7.90
12854;BMP180;6495;51.808;7.478;2023-04-03T11:01:50;102635.00;;;7.90
12854;BMP180;6495;51.808;7.478;2023-04-03T11:04:44;102638.00;;;8.10
12854;BMP180;6495;51.808;7.478;2023-04-03T11:07:40;102626.00;;;8.30
12854;BMP180;6495;51.808;7.478;2023-04-03T11:10:40;102634.00;;;8.30
12854;BMP180;6495;51.808;7.478;2023-04-03T11:13:35;102628.00;;;8.40
12854;BMP180;6495;51.808;7.478;2023-04-03T11:16:30;102630.00;;;8.40
12854;BMP180;6495;51.808;7.478;2023-04-03T11:19:36;102614.00;;;8.20
12854;BMP180;6495;51.808;7.478;2023-04-03T11:22:32;102624.00;;;8.30
12854;BMP180;6495;51.808;7.478;2023-04-03T11:25:24;102621.00;;;8.50
12854;BMP180;6495;51.808;7.478;2023-04-03T11:28:14;102614.00;;;8.50
12854;BMP180;6495;51.808;7.478;2023-04-03T11:31:19;102614.00;;;8.50
12854;BMP180;6495;51.808;7.478;2023-04-03T11:35:05;102626.00;;;8.60
12854;BMP180;6495;51.808;7.478;2023-04-03T11:37:55;102608.00;;;8.50
12854;BMP180;6495;51.808;7.478;2023-04-03T11:40:46;102619.00;;;8.50
12854;BMP180;6495;51.808;7.478;2023-04-03T11:43:42;102612.00;;;8.50
12854;BMP180;6495;51.808;7.478;2023-04-03T11:47:02;102613.00;;;8.50
12854;BMP180;6495;51.808;7.478;2023-04-03T11:49:59;102621.00;;;8.50
12854;BMP180;6495;51.808;7.478;2023-04-03T11:53:27;102602.00;;;8.60
12854;BMP180;6495;51.808;7.478;2023-04-03T11:56:30;102595.00;;;8.70
12854;BMP180;6495;51.808;7.478;2023-04-03T11:59:24;102599.00;;;8.70
12854;BMP180;6495;51.808;7.478;2023-04-03T12:02:37;102600.00;;;8.60
12854;BMP180;6495;51.808;7.478;2023-04-03T12:05:30;102614.00;;;8.60
12854;BMP180;6495;51.808;7.478;2023-04-03T12:08:29;102586.00;;;8.50
12854;BMP180;6495;51.808;7.478;2023-04-03T12:11:28;102586.00;;;8.50
12854;BMP180;6495;51.808;7.478;2023-04-03T12:14:17;102581.00;;;8.50
12854;BMP180;6495;51.808;7.478;2023-04-03T12:17:22;102593.00;;;8.60
12854;BMP180;6495;51.808;7.478;2023-04-03T12:20:58;102584.00;;;8.90
12854;BMP180;6495;51.808;7.478;2023-04-03T12:24:04;102581.00;;;8.90
12854;BMP180;6495;51.808;7.478;2023-04-03T12:30:21;102576.00;;;8.80
12854;BMP180;6495;51.808;7.478;2023-04-03T12:41:52;102573.00;;;8.50
12854;BMP180;6495;51.808;7.478;2023-04-03T13:15:17;102550.00;;;9.00
12854;BMP180;6495;51.808;7.478;2023-04-03T13:18:26;102542.00;;;9.00
12854;BMP180;6495;51.808;7.478;2023-04-03T13:21:22;102538.00;;;9.00
12854;BMP180;6495;51.808;7.478;2023-04-03T13:24:17;102533.00;;;8.90
12854;BMP180;6495;51.808;7.478;2023-04-03T13:27:06;102539.00;;;9.00
12854;BMP180;6495;51.808;7.478;2023-04-03T13:30:02;102526.00;;;9.10
12854;BMP180;6495;51.808;7.478;2023-04-03T13:33:04;102543.00;;;9.20
12854;BMP180;6495;51.808;7.478;2023-04-03T13:36:08;102543.00;;;9.10
12854;BMP180;6495;51.808;7.478;2023-04-03T13:39:21;102542.00;;;9.00
12854;BMP180;6495;51.808;7.478;2023-04-03T13:42:23;102517.00;;;9.00
12854;BMP180;6495;51.808;7.478;2023-04-03T13:45:21;102522.00;;;9.00
12854;BMP180;6495;51.808;7.478;2023-04-03T13:48:19;102524.00;;;9.10
12854;BMP180;6495;51.808;7.478;2023-04-03T13:51:26;102522.00;;;9.30
12854;BMP180;6495;51.808;7.478;2023-04-03T13:54:21;102520.00;;;9.30
12854;BMP180;6495;51.808;7.478;2023-04-03T13:57:15;102521.00;;;9.30
12854;BMP180;6495;51.808;7.478;2023-04-03T14:00:30;102525.00;;;9.30
12854;BMP180;6495;51.808;7.478;2023-04-03T14:03:25;102511.00;;;9.10
12854;BMP180;6495;51.808;7.478;2023-04-03T14:06:16;102514.00;;;9.20
12854;BMP180;6495;51.808;7.478;2023-04-03T14:09:05;102511.00;;;9.30
12854;BMP180;6495;51.808;7.478;2023-04-03T14:12:00;102503.00;;;9.30
12854;BMP180;6495;51.808;7.478;2023-04-03T14:14:48;102502.00;;;9.20
12854;BMP180;6495;51.808;7.478;2023-04-03T14:17:37;102493.00;;;9.00
12854;BMP180;6495;51.808;7.478;2023-04-03T14:20:27;102498.00;;;9.00
12854;BMP180;6495;51.808;7.478;2023-04-03T14:23:17;102487.00;;;9.10
12854;BMP180;6495;51.808;7.478;2023-04-03T14:26:12;102496.00;;;9.10
12854;BMP180;6495;51.808;7.478;2023-04-03T14:29:04;102485.00;;;9.00
12854;BMP180;6495;51.808;7.478;2023-04-03T14:31:53;102485.00;;;9.10
12854;BMP180;6495;51.808;7.478;2023-04-03T14:35:00;102487.00;;;9.20
12854;BMP180;6495;51.808;7.478;2023-04-03T14:37:54;102479.00;;;9.30
12854;BMP180;6495;51.808;7.478;2023-04-03T14:40:42;102479.00;;;9.50
12854;BMP180;6495;51.808;7.478;2023-04-03T14:43:31;102480.00;;;9.40
12854;BMP180;6495;51.808;7.478;2023-04-03T14:46:30;102472.00;;;9.30
12854;BMP180;6495;51.808;7.478;2023-04-03T14:49:40;102483.00;;;9.40
12854;BMP180;6495;51.808;7.478;2023-04-03T14:52:31;102482.00;;;9.40
12854;BMP180;6495;51.808;7.478;2023-04-03T14:55:23;102474.00;;;9.40
12854;BMP180;6495;51.808;7.478;2023-04-03T14:58:15;102472.00;;;9.50
12854;BMP180;6495;51.808;7.478;2023-04-03T15:01:10;102477.00;;;9.40
12854;BMP180;6495;51.808;7.478;2023-04-03T15:03:59;102482.00;;;9.30
12854;BMP180;6495;51.808;7.478;2023-04-03T15:06:49;102468.00;;;9.30
12854;BMP180;6495;51.808;7.478;2023-04-03T15:09:38;102462.00;;;9.30
12854;BMP180;6495;51.808;7.478;2023-04-03T15:12:39;102460.00;;;9.30
12854;BMP180;6495;51.808;7.478;2023-04-03T15:15:29;102443.00;;;9.20
12854;BMP180;6495;51.808;7.478;2023-04-03T15:18:22;102456.00;;;9.20
12854;BMP180;6495;51.808;7.478;2023-04-03T15:21:20;102460.00;;;9.30
12854;BMP180;6495;51.808;7.478;2023-04-03T15:24:09;102465.00;;;9.30
12854;BMP180;6495;51.808;7.478;2023-04-03T15:26:59;102469.00;;;9.30
12854;BMP180;6495;51.808;7.478;2023-04-03T15:29:50;102461.00;;;9.30
12854;BMP180;6495;51.808;7.478;2023-04-03T15:32:38;102460.00;;;9.10
12854;BMP180;6495;51.808;7.478;2023-04-03T15:35:27;102463.00;;;9.20
12854;BMP180;6495;51.808;7.478;2023-04-03T15:38:15;102467.00;;;9.30
12854;BMP180;6495;51.808;7.478;2023-04-03T15:41:07;102465.00;;;9.40
12854;BMP180;6495;51.808;7.478;2023-04-03T15:44:00;102473.00;;;9.30
12854;BMP180;6495;51.808;7.478;2023-04-03T15:46:50;102467.00;;;9.30
12854;BMP180;6495;51.808;7.478;2023-04-03T15:49:39;102460.00;;;9.40
12854;BMP180;6495;51.808;7.478;2023-04-03T15:52:27;102458.00;;;9.40
12854;BMP180;6495;51.808;7.478;2023-04-03T15:55:16;102460.00;;;9.30
12854;BMP180;6495;51.808;7.478;2023-04-03T15:58:05;102454.00;;;9.40
12854;BMP180;6495;51.808;7.478;2023-04-03T16:00:54;102460.00;;;9.30
12854;BMP180;6495;51.808;7.478;2023-04-03T16:03:44;102454.00;;;9.30
12854;BMP180;6495;51.808;7.478;2023-04-03T16:06:33;102455.00;;;9.30
12854;BMP180;6495;51.808;7.478;2023-04-03T16:09:22;102455.00;;;9.40
12854;BMP180;6495;51.808;7.478;2023-04-03T16:12:10;102460.00;;;9.40
12854;BMP180;6495;51.808;7.478;2023-04-03T16:14:59;102461.00;;;9.30
12854;BMP180;6495;51.808;7.478;2023-04-03T16:17:54;102460.00;;;9.30
12854;BMP180;6495;51.808;7.478;2023-04-03T16:20:45;102463.00;;;9.40
12854;BMP180;6495;51.808;7.478;2023-04-03T16:23:34;102456.00;;;9.40
12854;BMP180;6495;51.808;7.478;2023-04-03T16:26:22;102451.00;;;9.30
12854;BMP180;6495;51.808;7.478;2023-04-03T16:33:35;102450.00;;;9.30
12854;BMP180;6495;51.808;7.478;2023-04-03T16:36:25;102464.00;;;9.30
12854;BMP180;6495;51.808;7.478;2023-04-03T16:39:14;102453.00;;;9.30
12854;BMP180;6495;51.808;7.478;2023-04-03T16:42:03;102459.00;;;9.20
12854;BMP180;6495;51.808;7.478;2023-04-03T16:44:51;102459.00;;;9.20
12854;BMP180;6495;51.808;7.478;2023-04-03T16:47:40;102452.00;;;9.20
12854;BMP180;6495;51.808;7.478;2023-04-03T16:50:29;102452.00;;;9.30
12854;BMP180;6495;51.808;7.478;2023-04-03T16:53:19;102453.00;;;9.30
12854;BMP180;6495;51.808;7.478;2023-04-03T16:56:08;102452.00;;;9.20
12854;BMP180;6495;51.808;7.478;2023-04-03T16:58:57;102448.00;;;9.20
12854;BMP180;6495;51.808;7.478;2023-04-03T17:01:45;102456.00;;;9.10
12854;BMP180;6495;51.808;7.478;2023-04-03T17:04:34;102459.00;;;9.20
12854;BMP180;6495;51.808;7.478;2023-04-03T17:07:24;102462.00;;;9.20
12854;BMP180;6495;51.808;7.478;2023-04-03T17:10:14;102455.00;;;9.20
12854;BMP180;6495;51.808;7.478;2023-04-03T17:13:03;102444.00;;;9.10
12854;BMP180;6495;51.808;7.478;2023-04-03T17:15:51;102452.00;;;8.90
12854;BMP180;6495;51.808;7.478;2023-04-03T17:18:43;102445.00;;;8.80
12854;BMP180;6495;51.808;7.478;2023-04-03T17:25:51;102449.00;;;8.60
12854;BMP180;6495;51.808;7.478;2023-04-03T17:28:41;102449.00;;;8.60
12854;BMP180;6495;51.808;7.478;2023-04-03T17:31:49;102456.00;;;8.60
12854;BMP180;6495;51.808;7.478;2023-04-03T17:35:18;102452.00;;;8.60
12854;BMP180;6495;51.808;7.478;2023-04-03T17:38:39;102449.00;;;8.60
12854;BMP180;6495;51.808;7.478;2023-04-03T17:49:52;102450.00;;;8.30
12854;BMP180;6495;51.808;7.478;2023-04-03T17:52:55;102448.00;;;8.30
12854;BMP180;6495;51.808;7.478;2023-04-03T17:55:52;102446.00;;;8.20
12854;BMP180;6495;51.808;7.478;2023-04-03T17:58:44;102450.00;;;8.30
12854;BMP180;6495;51.808;7.478;2023-04-03T18:01:34;102445.00;;;8.30
12854;BMP180;6495;51.808;7.478;2023-04-03T18:04:23;102445.00;;;8.30
12854;BMP180;6495;51.808;7.478;2023-04-03T18:07:38;102456.00;;;8.40